sensor_id;sensor_type;location;lat;lon;timestamp;temperature;humidity
20839;DHT22;10580;51.092;6.828;2024-01-11T00:00:38;-5.00;1.00
20839;DHT22;10580;51.092;6.828;2024-01-11T00:03:04;-5.00;1.00
20839;DHT22;10580;51.092;6.828;2024-01-11T00:05:29;-5.00;1.00
20839;DHT22;10580;51.092;6.828;2024-01-11T00:07:55;-5.00;1.00
20839;DHT22;10580;51.092;6.828;2024-01-11T00:10:20;-5.00;1.00
20839;DHT22;10580;51.092;6.828;2024-01-11T00:12:46;-5.00;1.00
20839;DHT22;10580;51.092;6.828;2024-01-11T00:15:12;-5.00;1.00
20839;DHT22;10580;51.092;6.828;2024-01-11T00:17:38;-5.00;1.00
20839;DHT22;10580;51.092;6.828;2024-01-11T00:20:04;-5.10;1.00
20839;DHT22;10580;51.092;6.828;2024-01-11T00:22:29;-5.10;1.00
20839;DHT22;10580;51.092;6.828;2024-01-11T00:24:55;-5.10;1.00
20839;DHT22;10580;51.092;6.828;2024-01-11T00:27:20;-5.10;1.00
20839;DHT22;10580;51.092;6.828;2024-01-11T00:29:46;-5.20;1.00
20839;DHT22;10580;51.092;6.828;2024-01-11T00:32:11;-5.20;1.00
20839;DHT22;10580;51.092;6.828;2024-01-11T00:34:37;-5.20;1.00
20839;DHT22;10580;51.092;6.828;2024-01-11T00:37:04;-5.20;1.00
20839;DHT22;10580;51.092;6.828;2024-01-11T00:39:29;-5.20;13.30
20839;DHT22;10580;51.092;6.828;2024-01-11T00:41:55;-5.20;15.20
20839;DHT22;10580;51.092;6.828;2024-01-11T00:44:21;-5.20;10.70
20839;DHT22;10580;51.092;6.828;2024-01-11T00:46:46;-5.20;12.20
20839;DHT22;10580;51.092;6.828;2024-01-11T00:49:12;-5.20;3.60
20839;DHT22;10580;51.092;6.828;2024-01-11T00:51:38;-5.20;15.90
20839;DHT22;10580;51.092;6.828;2024-01-11T00:54:03;-5.20;18.60
20839;DHT22;10580;51.092;6.828;2024-01-11T00:56:29;-5.30;18.30
20839;DHT22;10580;51.092;6.828;2024-01-11T00:58:54;-5.30;51.10
20839;DHT22;10580;51.092;6.828;2024-01-11T01:01:20;-5.30;67.30
20839;DHT22;10580;51.092;6.828;2024-01-11T01:03:46;-5.30;80.60
20839;DHT22;10580;51.092;6.828;2024-01-11T01:06:11;-5.30;94.10
20839;DHT22;10580;51.092;6.828;2024-01-11T01:08:37;-5.30;70.20
20839;DHT22;10580;51.092;6.828;2024-01-11T01:11:02;-5.30;59.80
20839;DHT22;10580;51.092;6.828;2024-01-11T01:13:28;-5.40;71.90
20839;DHT22;10580;51.092;6.828;2024-01-11T01:15:54;-5.40;57.60
20839;DHT22;10580;51.092;6.828;2024-01-11T01:18:20;-5.40;49.40
20839;DHT22;10580;51.092;6.828;2024-01-11T01:20:46;-5.40;71.60
20839;DHT22;10580;51.092;6.828;2024-01-11T01:23:11;-5.50;99.90
20839;DHT22;10580;51.092;6.828;2024-01-11T01:25:37;-5.50;99.90
20839;DHT22;10580;51.092;6.828;2024-01-11T01:28:02;-5.50;99.90
20839;DHT22;10580;51.092;6.828;2024-01-11T01:30:28;-5.50;99.90
20839;DHT22;10580;51.092;6.828;2024-01-11T01:32:54;-5.60;99.90
20839;DHT22;10580;51.092;6.828;2024-01-11T01:35:20;-5.50;97.70
20839;DHT22;10580;51.092;6.828;2024-01-11T01:37:45;-5.60;56.70
20839;DHT22;10580;51.092;6.828;2024-01-11T01:40:11;-5.60;27.80
20839;DHT22;10580;51.092;6.828;2024-01-11T01:42:45;-5.60;24.50
20839;DHT22;10580;51.092;6.828;2024-01-11T01:45:11;-5.60;33.40
20839;DHT22;10580;51.092;6.828;2024-01-11T01:47:38;-5.60;18.30
20839;DHT22;10580;51.092;6.828;2024-01-11T01:50:06;-5.60;25.60
20839;DHT22;10580;51.092;6.828;2024-01-11T01:52:32;-5.60;95.40
20839;DHT22;10580;51.092;6.828;2024-01-11T01:54:58;-5.60;99.90
20839;DHT22;10580;51.092;6.828;2024-01-11T01:57:25;-5.60;95.00
20839;DHT22;10580;51.092;6.828;2024-01-11T01:59:51;-5.60;51.90
20839;DHT22;10580;51.092;6.828;2024-01-11T02:02:19;-5.60;45.30
20839;DHT22;10580;51.092;6.828;2024-01-11T02:04:44;-5.60;51.40
20839;DHT22;10580;51.092;6.828;2024-01-11T02:07:11;-5.60;97.20
20839;DHT22;10580;51.092;6.828;2024-01-11T02:09:37;-5.60;97.80
20839;DHT22;10580;51.092;6.828;2024-01-11T02:12:03;-5.70;98.20
20839;DHT22;10580;51.092;6.828;2024-01-11T02:14:30;-5.70;99.90
20839;DHT22;10580;51.092;6.828;2024-01-11T02:16:56;-5.80;99.90
20839;DHT22;10580;51.092;6.828;2024-01-11T02:19:22;-5.70;99.90
20839;DHT22;10580;51.092;6.828;2024-01-11T02:21:50;-5.80;99.90
20839;DHT22;10580;51.092;6.828;2024-01-11T02:24:17;-5.80;99.90
20839;DHT22;10580;51.092;6.828;2024-01-11T02:27:03;-5.80;99.90
20839;DHT22;10580;51.092;6.828;2024-01-11T02:29:30;-5.80;99.90
20839;DHT22;10580;51.092;6.828;2024-01-11T02:31:56;-5.90;99.90
20839;DHT22;10580;51.092;6.828;2024-01-11T02:34:27;-5.90;99.90
20839;DHT22;10580;51.092;6.828;2024-01-11T02:36:53;-5.80;99.90
20839;DHT22;10580;51.092;6.828;2024-01-11T02:39:20;-5.80;1.00
20839;DHT22;10580;51.092;6.828;2024-01-11T02:41:51;-5.80;1.00
20839;DHT22;10580;51.092;6.828;2024-01-11T02:44:17;-5.80;1.00
20839;DHT22;10580;51.092;6.828;2024-01-11T02:46:43;-5.80;1.00
20839;DHT22;10580;51.092;6.828;2024-01-11T02:49:08;-5.80;1.00
20839;DHT22;10580;51.092;6.828;2024-01-11T02:51:34;-5.90;1.00
20839;DHT22;10580;51.092;6.828;2024-01-11T02:54:01;-5.90;1.00
20839;DHT22;10580;51.092;6.828;2024-01-11T02:56:26;-5.90;1.00
20839;DHT22;10580;51.092;6.828;2024-01-11T02:58:52;-5.90;1.00
20839;DHT22;10580;51.092;6.828;2024-01-11T03:01:17;-5.90;1.00
20839;DHT22;10580;51.092;6.828;2024-01-11T03:03:43;-5.90;1.00
20839;DHT22;10580;51.092;6.828;2024-01-11T03:06:09;-5.90;1.00
20839;DHT22;10580;51.092;6.828;2024-01-11T03:08:35;-5.90;1.00
20839;DHT22;10580;51.092;6.828;2024-01-11T03:11:00;-5.90;1.00
20839;DHT22;10580;51.092;6.828;2024-01-11T03:13:26;-5.90;1.00
20839;DHT22;10580;51.092;6.828;2024-01-11T03:15:51;-5.90;1.00
20839;DHT22;10580;51.092;6.828;2024-01-11T03:18:17;-5.90;1.00
20839;DHT22;10580;51.092;6.828;2024-01-11T03:20:42;-5.90;1.00
20839;DHT22;10580;51.092;6.828;2024-01-11T03:23:08;-5.90;1.00
20839;DHT22;10580;51.092;6.828;2024-01-11T03:25:33;-5.90;1.00
20839;DHT22;10580;51.092;6.828;2024-01-11T03:27:59;-5.90;1.00
20839;DHT22;10580;51.092;6.828;2024-01-11T03:30:25;-6.00;1.00
20839;DHT22;10580;51.092;6.828;2024-01-11T03:32:51;-6.00;1.00
20839;DHT22;10580;51.092;6.828;2024-01-11T03:35:18;-6.00;1.00
20839;DHT22;10580;51.092;6.828;2024-01-11T03:37:44;-6.10;1.00
20839;DHT22;10580;51.092;6.828;2024-01-11T03:40:10;-6.10;1.00
20839;DHT22;10580;51.092;6.828;2024-01-11T03:42:36;-6.10;1.00
20839;DHT22;10580;51.092;6.828;2024-01-11T03:45:02;-6.10;1.00
20839;DHT22;10580;51.092;6.828;2024-01-11T03:47:28;-6.10;1.00
20839;DHT22;10580;51.092;6.828;2024-01-11T03:49:54;-6.20;1.00
20839;DHT22;10580;51.092;6.828;2024-01-11T03:52:19;-6.10;1.00
20839;DHT22;10580;51.092;6.828;2024-01-11T03:54:45;-6.10;1.00
20839;DHT22;10580;51.092;6.828;2024-01-11T03:57:11;-6.10;1.00
20839;DHT22;10580;51.092;6.828;2024-01-11T03:59:37;-6.10;1.00
20839;DHT22;10580;51.092;6.828;2024-01-11T04:02:02;-6.10;1.00
20839;DHT22;10580;51.092;6.828;2024-01-11T04:04:28;-6.20;1.00
20839;DHT22;10580;51.092;6.828;2024-01-11T04:06:53;-6.10;1.00
20839;DHT22;10580;51.092;6.828;2024-01-11T04:09:19;-6.20;1.00
20839;DHT22;10580;51.092;6.828;2024-01-11T04:11:45;-6.20;1.00
20839;DHT22;10580;51.092;6.828;2024-01-11T04:14:11;-6.20;1.00
20839;DHT22;10580;51.092;6.828;2024-01-11T04:16:41;-6.20;1.00
20839;DHT22;10580;51.092;6.828;2024-01-11T04:19:07;-6.20;1.00
20839;DHT22;10580;51.092;6.828;2024-01-11T04:21:33;-6.30;1.00
20839;DHT22;10580;51.092;6.828;2024-01-11T04:23:59;-6.30;1.00
20839;DHT22;10580;51.092;6.828;2024-01-11T04:26:24;-6.30;1.00
20839;DHT22;10580;51.092;6.828;2024-01-11T04:28:51;-6.30;1.00
20839;DHT22;10580;51.092;6.828;2024-01-11T04:31:16;-6.30;1.00
20839;DHT22;10580;51.092;6.828;2024-01-11T04:33:43;-6.30;1.00
20839;DHT22;10580;51.092;6.828;2024-01-11T04:36:09;-6.30;1.00
20839;DHT22;10580;51.092;6.828;2024-01-11T04:38:35;-6.40;1.00
20839;DHT22;10580;51.092;6.828;2024-01-11T04:41:06;-6.30;1.00
20839;DHT22;10580;51.092;6.828;2024-01-11T04:43:32;-6.40;1.00
20839;DHT22;10580;51.092;6.828;2024-01-11T04:45:58;-6.40;1.00
20839;DHT22;10580;51.092;6.828;2024-01-11T04:48:23;-6.40;1.00
20839;DHT22;10580;51.092;6.828;2024-01-11T04:50:49;-6.40;1.00
20839;DHT22;10580;51.092;6.828;2024-01-11T04:53:14;-6.40;1.00
20839;DHT22;10580;51.092;6.828;2024-01-11T04:55:40;-6.40;1.00
20839;DHT22;10580;51.092;6.828;2024-01-11T04:58:06;-6.50;1.00
20839;DHT22;10580;51.092;6.828;2024-01-11T05:00:31;-6.50;1.00
20839;DHT22;10580;51.092;6.828;2024-01-11T05:02:57;-6.50;1.00
20839;DHT22;10580;51.092;6.828;2024-01-11T05:05:22;-6.50;1.00
20839;DHT22;10580;51.092;6.828;2024-01-11T05:07:48;-6.50;1.00
20839;DHT22;10580;51.092;6.828;2024-01-11T05:10:13;-6.50;1.00
20839;DHT22;10580;51.092;6.828;2024-01-11T05:12:40;-6.50;1.00
20839;DHT22;10580;51.092;6.828;2024-01-11T05:15:06;-6.50;1.00
20839;DHT22;10580;51.092;6.828;2024-01-11T05:17:33;-6.50;1.00
20839;DHT22;10580;51.092;6.828;2024-01-11T05:19:59;-6.50;1.00
20839;DHT22;10580;51.092;6.828;2024-01-11T05:22:24;-6.50;1.00
20839;DHT22;10580;51.092;6.828;2024-01-11T05:24:50;-6.50;1.00
20839;DHT22;10580;51.092;6.828;2024-01-11T05:27:15;-6.50;1.00
20839;DHT22;10580;51.092;6.828;2024-01-11T05:29:41;-6.60;1.00
20839;DHT22;10580;51.092;6.828;2024-01-11T05:32:06;-6.60;1.00
20839;DHT22;10580;51.092;6.828;2024-01-11T05:34:32;-6.60;1.00
20839;DHT22;10580;51.092;6.828;2024-01-11T05:36:57;-6.60;1.00
20839;DHT22;10580;51.092;6.828;2024-01-11T05:39:23;-6.60;1.00
20839;DHT22;10580;51.092;6.828;2024-01-11T05:41:48;-6.70;1.00
20839;DHT22;10580;51.092;6.828;2024-01-11T05:44:14;-6.60;1.00
20839;DHT22;10580;51.092;6.828;2024-01-11T05:46:40;-6.70;1.00
20839;DHT22;10580;51.092;6.828;2024-01-11T05:49:06;-6.70;1.00
20839;DHT22;10580;51.092;6.828;2024-01-11T05:51:31;-6.70;1.00
20839;DHT22;10580;51.092;6.828;2024-01-11T05:53:57;-6.70;1.00
20839;DHT22;10580;51.092;6.828;2024-01-11T05:56:22;-6.70;1.00
20839;DHT22;10580;51.092;6.828;2024-01-11T05:58:48;-6.70;1.00
20839;DHT22;10580;51.092;6.828;2024-01-11T06:01:13;-6.70;1.00
20839;DHT22;10580;51.092;6.828;2024-01-11T06:03:39;-6.70;1.00
20839;DHT22;10580;51.092;6.828;2024-01-11T06:06:05;-6.80;1.00
20839;DHT22;10580;51.092;6.828;2024-01-11T06:08:31;-6.80;1.00
20839;DHT22;10580;51.092;6.828;2024-01-11T06:10:57;-6.80;99.90
20839;DHT22;10580;51.092;6.828;2024-01-11T06:13:23;-6.90;99.90
20839;DHT22;10580;51.092;6.828;2024-01-11T06:15:48;-6.90;99.90
20839;DHT22;10580;51.092;6.828;2024-01-11T06:18:15;-6.80;99.90
20839;DHT22;10580;51.092;6.828;2024-01-11T06:20:41;-6.90;99.90
20839;DHT22;10580;51.092;6.828;2024-01-11T06:23:06;-6.90;99.90
20839;DHT22;10580;51.092;6.828;2024-01-11T06:25:32;-6.90;99.90
20839;DHT22;10580;51.092;6.828;2024-01-11T06:27:58;-6.90;99.90
20839;DHT22;10580;51.092;6.828;2024-01-11T06:30:23;-6.80;1.00
20839;DHT22;10580;51.092;6.828;2024-01-11T06:32:49;-6.80;1.00
20839;DHT22;10580;51.092;6.828;2024-01-11T06:35:14;-6.80;1.00
20839;DHT22;10580;51.092;6.828;2024-01-11T06:37:40;-6.90;99.90
20839;DHT22;10580;51.092;6.828;2024-01-11T06:40:06;-6.90;99.90
20839;DHT22;10580;51.092;6.828;2024-01-11T06:42:33;-6.90;1.00
20839;DHT22;10580;51.092;6.828;2024-01-11T06:44:59;-6.90;1.00
20839;DHT22;10580;51.092;6.828;2024-01-11T06:47:24;-6.90;1.00
20839;DHT22;10580;51.092;6.828;2024-01-11T06:49:50;-6.90;1.00
20839;DHT22;10580;51.092;6.828;2024-01-11T06:52:16;-6.90;1.00
20839;DHT22;10580;51.092;6.828;2024-01-11T06:54:41;-7.00;1.00
20839;DHT22;10580;51.092;6.828;2024-01-11T06:57:07;-7.00;1.00
20839;DHT22;10580;51.092;6.828;2024-01-11T06:59:34;-7.00;1.00
20839;DHT22;10580;51.092;6.828;2024-01-11T07:01:59;-7.00;1.00
20839;DHT22;10580;51.092;6.828;2024-01-11T07:04:25;-7.00;1.00
20839;DHT22;10580;51.092;6.828;2024-01-11T07:06:50;-7.00;1.00
20839;DHT22;10580;51.092;6.828;2024-01-11T07:09:16;-7.00;1.00
20839;DHT22;10580;51.092;6.828;2024-01-11T07:11:43;-7.00;1.00
20839;DHT22;10580;51.092;6.828;2024-01-11T07:14:09;-7.00;1.00
20839;DHT22;10580;51.092;6.828;2024-01-11T07:16:34;-7.00;1.00
20839;DHT22;10580;51.092;6.828;2024-01-11T07:19:00;-7.10;99.90
20839;DHT22;10580;51.092;6.828;2024-01-11T07:21:26;-7.10;99.90
20839;DHT22;10580;51.092;6.828;2024-01-11T07:23:58;-7.10;99.90
20839;DHT22;10580;51.092;6.828;2024-01-11T07:26:23;-7.10;99.90
20839;DHT22;10580;51.092;6.828;2024-01-11T07:28:49;-7.10;99.90
20839;DHT22;10580;51.092;6.828;2024-01-11T07:31:15;-7.10;99.90
20839;DHT22;10580;51.092;6.828;2024-01-11T07:33:41;-7.10;99.90
20839;DHT22;10580;51.092;6.828;2024-01-11T07:36:07;-7.10;99.90
20839;DHT22;10580;51.092;6.828;2024-01-11T07:38:32;-7.10;99.90
20839;DHT22;10580;51.092;6.828;2024-01-11T07:40:58;-7.00;99.90
20839;DHT22;10580;51.092;6.828;2024-01-11T07:43:23;-7.10;1.00
20839;DHT22;10580;51.092;6.828;2024-01-11T07:45:49;-7.00;1.00
20839;DHT22;10580;51.092;6.828;2024-01-11T07:48:15;-7.00;1.00
20839;DHT22;10580;51.092;6.828;2024-01-11T07:50:41;-6.90;1.00
20839;DHT22;10580;51.092;6.828;2024-01-11T07:53:07;-6.80;1.00
20839;DHT22;10580;51.092;6.828;2024-01-11T07:55:32;-6.80;1.00
20839;DHT22;10580;51.092;6.828;2024-01-11T07:57:58;-6.80;1.00
20839;DHT22;10580;51.092;6.828;2024-01-11T08:00:23;-6.80;1.00
20839;DHT22;10580;51.092;6.828;2024-01-11T08:02:49;-6.80;1.00
20839;DHT22;10580;51.092;6.828;2024-01-11T08:05:15;-6.80;1.00
20839;DHT22;10580;51.092;6.828;2024-01-11T08:07:40;-6.70;1.00
20839;DHT22;10580;51.092;6.828;2024-01-11T08:10:07;-6.60;1.00
20839;DHT22;10580;51.092;6.828;2024-01-11T08:12:34;-6.60;1.00
20839;DHT22;10580;51.092;6.828;2024-01-11T08:15:00;-6.50;1.00
20839;DHT22;10580;51.092;6.828;2024-01-11T08:17:26;-6.50;1.00
20839;DHT22;10580;51.092;6.828;2024-01-11T08:19:51;-6.40;1.00
20839;DHT22;10580;51.092;6.828;2024-01-11T08:22:17;-6.30;1.00
20839;DHT22;10580;51.092;6.828;2024-01-11T08:24:43;-6.30;1.00
20839;DHT22;10580;51.092;6.828;2024-01-11T08:27:08;-6.20;1.00
20839;DHT22;10580;51.092;6.828;2024-01-11T08:29:34;-6.20;1.00
20839;DHT22;10580;51.092;6.828;2024-01-11T08:32:00;-6.10;1.00
20839;DHT22;10580;51.092;6.828;2024-01-11T08:34:30;-6.10;1.00
20839;DHT22;10580;51.092;6.828;2024-01-11T08:36:55;-6.00;1.00
20839;DHT22;10580;51.092;6.828;2024-01-11T08:39:21;-5.90;1.00
20839;DHT22;10580;51.092;6.828;2024-01-11T08:41:47;-5.80;1.00
20839;DHT22;10580;51.092;6.828;2024-01-11T08:44:13;-5.60;1.00
20839;DHT22;10580;51.092;6.828;2024-01-11T08:46:39;-5.30;1.00
20839;DHT22;10580;51.092;6.828;2024-01-11T08:49:04;-4.70;99.90
20839;DHT22;10580;51.092;6.828;2024-01-11T08:51:30;-3.70;1.00
20839;DHT22;10580;51.092;6.828;2024-01-11T08:53:57;-2.60;1.00
20839;DHT22;10580;51.092;6.828;2024-01-11T08:56:23;-1.90;1.00
20839;DHT22;10580;51.092;6.828;2024-01-11T08:58:48;-1.20;1.00
20839;DHT22;10580;51.092;6.828;2024-01-11T09:01:15;-0.50;99.90
20839;DHT22;10580;51.092;6.828;2024-01-11T09:03:41;-0.30;1.00
20839;DHT22;10580;51.092;6.828;2024-01-11T09:06:06;-0.20;99.90
20839;DHT22;10580;51.092;6.828;2024-01-11T09:08:32;0.00;1.00
20839;DHT22;10580;51.092;6.828;2024-01-11T09:10:59;0.30;1.00
20839;DHT22;10580;51.092;6.828;2024-01-11T09:13:25;0.40;99.90
20839;DHT22;10580;51.092;6.828;2024-01-11T09:15:51;0.60;92.30
20839;DHT22;10580;51.092;6.828;2024-01-11T09:18:17;0.80;1.00
20839;DHT22;10580;51.092;6.828;2024-01-11T09:20:43;0.60;1.00
20839;DHT22;10580;51.092;6.828;2024-01-11T09:23:09;0.60;99.90
20839;DHT22;10580;51.092;6.828;2024-01-11T09:25:34;0.60;99.90
20839;DHT22;10580;51.092;6.828;2024-01-11T09:28:00;0.40;99.90
20839;DHT22;10580;51.092;6.828;2024-01-11T09:30:26;0.50;1.00
20839;DHT22;10580;51.092;6.828;2024-01-11T09:32:51;0.50;1.00
20839;DHT22;10580;51.092;6.828;2024-01-11T09:35:17;0.70;99.90
20839;DHT22;10580;51.092;6.828;2024-01-11T09:37:43;1.10;99.90
20839;DHT22;10580;51.092;6.828;2024-01-11T09:40:11;1.40;99.90
20839;DHT22;10580;51.092;6.828;2024-01-11T09:42:37;1.70;1.00
20839;DHT22;10580;51.092;6.828;2024-01-11T09:45:10;2.10;99.90
20839;DHT22;10580;51.092;6.828;2024-01-11T09:47:38;2.50;1.00
20839;DHT22;10580;51.092;6.828;2024-01-11T09:50:04;3.10;99.90
20839;DHT22;10580;51.092;6.828;2024-01-11T09:52:30;3.80;1.00
20839;DHT22;10580;51.092;6.828;2024-01-11T09:54:58;4.20;1.00
20839;DHT22;10580;51.092;6.828;2024-01-11T09:57:29;4.50;1.00
20839;DHT22;10580;51.092;6.828;2024-01-11T09:59:57;4.10;1.00
20839;DHT22;10580;51.092;6.828;2024-01-11T10:02:23;3.10;1.00
20839;DHT22;10580;51.092;6.828;2024-01-11T10:04:50;2.20;1.00
20839;DHT22;10580;51.092;6.828;2024-01-11T10:07:19;1.40;99.90
20839;DHT22;10580;51.092;6.828;2024-01-11T10:09:46;1.00;99.90
20839;DHT22;10580;51.092;6.828;2024-01-11T10:12:12;1.30;99.90
20839;DHT22;10580;51.092;6.828;2024-01-11T10:14:38;1.50;1.00
20839;DHT22;10580;51.092;6.828;2024-01-11T10:17:04;1.60;1.00
20839;DHT22;10580;51.092;6.828;2024-01-11T10:19:30;2.00;99.90
20839;DHT22;10580;51.092;6.828;2024-01-11T10:21:57;2.20;1.00
20839;DHT22;10580;51.092;6.828;2024-01-11T10:24:23;2.60;1.00
20839;DHT22;10580;51.092;6.828;2024-01-11T10:26:55;2.70;99.90
20839;DHT22;10580;51.092;6.828;2024-01-11T10:29:21;3.10;99.90
20839;DHT22;10580;51.092;6.828;2024-01-11T10:31:47;3.20;99.90
20839;DHT22;10580;51.092;6.828;2024-01-11T10:34:12;3.20;38.40
20839;DHT22;10580;51.092;6.828;2024-01-11T10:36:38;3.60;1.00
20839;DHT22;10580;51.092;6.828;2024-01-11T10:39:04;3.80;1.00
20839;DHT22;10580;51.092;6.828;2024-01-11T10:41:32;3.70;1.00
20839;DHT22;10580;51.092;6.828;2024-01-11T10:44:03;3.30;1.00
20839;DHT22;10580;51.092;6.828;2024-01-11T10:46:32;3.00;1.00
20839;DHT22;10580;51.092;6.828;2024-01-11T10:48:59;3.00;1.00
20839;DHT22;10580;51.092;6.828;2024-01-11T10:51:31;3.30;1.00
20839;DHT22;10580;51.092;6.828;2024-01-11T10:53:59;3.60;1.00
20839;DHT22;10580;51.092;6.828;2024-01-11T10:56:26;3.80;1.00
20839;DHT22;10580;51.092;6.828;2024-01-11T10:58:54;3.40;1.00
20839;DHT22;10580;51.092;6.828;2024-01-11T11:01:20;3.00;1.00
20839;DHT22;10580;51.092;6.828;2024-01-11T11:03:48;2.50;1.00
20839;DHT22;10580;51.092;6.828;2024-01-11T11:06:18;2.20;43.50
20839;DHT22;10580;51.092;6.828;2024-01-11T11:08:47;2.20;1.00
20839;DHT22;10580;51.092;6.828;2024-01-11T11:11:15;2.40;99.90
20839;DHT22;10580;51.092;6.828;2024-01-11T11:13:41;2.90;1.80
20839;DHT22;10580;51.092;6.828;2024-01-11T11:16:08;3.30;1.00
20839;DHT22;10580;51.092;6.828;2024-01-11T11:18:34;3.60;1.00
20839;DHT22;10580;51.092;6.828;2024-01-11T11:21:02;3.60;1.00
20839;DHT22;10580;51.092;6.828;2024-01-11T11:23:31;3.10;1.00
20839;DHT22;10580;51.092;6.828;2024-01-11T11:25:57;2.60;1.00
20839;DHT22;10580;51.092;6.828;2024-01-11T11:28:22;2.10;1.00
20839;DHT22;10580;51.092;6.828;2024-01-11T11:30:49;1.70;99.90
20839;DHT22;10580;51.092;6.828;2024-01-11T11:33:23;1.50;1.00
20839;DHT22;10580;51.092;6.828;2024-01-11T11:35:52;1.10;99.90
20839;DHT22;10580;51.092;6.828;2024-01-11T11:38:23;0.90;1.00
20839;DHT22;10580;51.092;6.828;2024-01-11T11:40:51;0.90;1.00
20839;DHT22;10580;51.092;6.828;2024-01-11T11:43:18;0.70;1.00
20839;DHT22;10580;51.092;6.828;2024-01-11T11:45:46;0.60;1.00
20839;DHT22;10580;51.092;6.828;2024-01-11T11:51:14;0.80;96.00
20839;DHT22;10580;51.092;6.828;2024-01-11T11:53:41;1.20;51.30
20839;DHT22;10580;51.092;6.828;2024-01-11T11:56:08;1.40;1.00
20839;DHT22;10580;51.092;6.828;2024-01-11T11:58:38;1.50;1.00
20839;DHT22;10580;51.092;6.828;2024-01-11T12:01:06;1.80;99.90
20839;DHT22;10580;51.092;6.828;2024-01-11T12:03:33;1.90;69.00
20839;DHT22;10580;51.092;6.828;2024-01-11T12:06:02;2.20;99.90
20839;DHT22;10580;51.092;6.828;2024-01-11T12:08:28;2.80;1.00
20839;DHT22;10580;51.092;6.828;2024-01-11T12:10:54;3.00;99.90
20839;DHT22;10580;51.092;6.828;2024-01-11T12:13:20;3.00;1.00
20839;DHT22;10580;51.092;6.828;2024-01-11T12:15:46;3.10;1.00
20839;DHT22;10580;51.092;6.828;2024-01-11T12:18:12;3.10;1.00
20839;DHT22;10580;51.092;6.828;2024-01-11T12:20:37;3.30;1.00
20839;DHT22;10580;51.092;6.828;2024-01-11T12:23:03;3.40;1.00
20839;DHT22;10580;51.092;6.828;2024-01-11T12:25:30;3.70;1.00
20839;DHT22;10580;51.092;6.828;2024-01-11T12:27:57;3.80;1.00
20839;DHT22;10580;51.092;6.828;2024-01-11T12:30:23;3.50;1.00
20839;DHT22;10580;51.092;6.828;2024-01-11T12:32:49;2.90;1.00
20839;DHT22;10580;51.092;6.828;2024-01-11T12:35:16;2.50;1.00
20839;DHT22;10580;51.092;6.828;2024-01-11T12:37:55;2.40;1.00
20839;DHT22;10580;51.092;6.828;2024-01-11T12:40:21;2.20;1.00
20839;DHT22;10580;51.092;6.828;2024-01-11T12:42:48;2.00;1.00
20839;DHT22;10580;51.092;6.828;2024-01-11T12:45:16;1.90;1.00
20839;DHT22;10580;51.092;6.828;2024-01-11T12:47:42;1.90;79.20
20839;DHT22;10580;51.092;6.828;2024-01-11T12:50:08;1.80;99.90
20839;DHT22;10580;51.092;6.828;2024-01-11T12:52:34;1.60;99.90
20839;DHT22;10580;51.092;6.828;2024-01-11T12:55:00;1.60;99.90
20839;DHT22;10580;51.092;6.828;2024-01-11T12:57:25;1.60;99.90
20839;DHT22;10580;51.092;6.828;2024-01-11T12:59:52;1.70;99.90
20839;DHT22;10580;51.092;6.828;2024-01-11T13:02:18;1.50;99.90
20839;DHT22;10580;51.092;6.828;2024-01-11T13:04:43;1.50;99.90
20839;DHT22;10580;51.092;6.828;2024-01-11T13:07:12;1.40;99.90
20839;DHT22;10580;51.092;6.828;2024-01-11T13:09:38;1.40;99.90
20839;DHT22;10580;51.092;6.828;2024-01-11T13:12:04;1.30;1.00
20839;DHT22;10580;51.092;6.828;2024-01-11T13:14:30;1.20;1.00
20839;DHT22;10580;51.092;6.828;2024-01-11T13:16:56;1.20;1.00
20839;DHT22;10580;51.092;6.828;2024-01-11T13:19:23;1.20;1.00
20839;DHT22;10580;51.092;6.828;2024-01-11T13:21:48;1.20;1.00
20839;DHT22;10580;51.092;6.828;2024-01-11T13:24:14;1.20;1.00
20839;DHT22;10580;51.092;6.828;2024-01-11T13:26:40;1.20;1.00
20839;DHT22;10580;51.092;6.828;2024-01-11T13:29:06;1.20;1.00
20839;DHT22;10580;51.092;6.828;2024-01-11T13:31:32;1.10;1.00
20839;DHT22;10580;51.092;6.828;2024-01-11T13:33:58;1.10;1.00
20839;DHT22;10580;51.092;6.828;2024-01-11T13:36:23;1.10;1.00
20839;DHT22;10580;51.092;6.828;2024-01-11T13:38:49;1.10;1.00
20839;DHT22;10580;51.092;6.828;2024-01-11T13:41:16;1.10;1.00
20839;DHT22;10580;51.092;6.828;2024-01-11T13:43:44;1.20;1.00
20839;DHT22;10580;51.092;6.828;2024-01-11T13:46:10;1.10;1.00
20839;DHT22;10580;51.092;6.828;2024-01-11T13:48:38;1.20;99.90
20839;DHT22;10580;51.092;6.828;2024-01-11T13:51:04;1.20;99.90
20839;DHT22;10580;51.092;6.828;2024-01-11T13:53:29;1.40;99.90
20839;DHT22;10580;51.092;6.828;2024-01-11T13:55:56;2.00;6.30
20839;DHT22;10580;51.092;6.828;2024-01-11T13:58:22;2.60;1.00
20839;DHT22;10580;51.092;6.828;2024-01-11T14:00:48;2.80;1.00
20839;DHT22;10580;51.092;6.828;2024-01-11T14:03:13;2.80;1.00
20839;DHT22;10580;51.092;6.828;2024-01-11T14:05:39;2.40;1.00
20839;DHT22;10580;51.092;6.828;2024-01-11T14:08:05;2.20;1.00
20839;DHT22;10580;51.092;6.828;2024-01-11T14:10:34;2.10;1.00
20839;DHT22;10580;51.092;6.828;2024-01-11T14:13:01;1.90;1.00
20839;DHT22;10580;51.092;6.828;2024-01-11T14:15:27;1.80;1.00
20839;DHT22;10580;51.092;6.828;2024-01-11T14:17:53;1.70;1.00
20839;DHT22;10580;51.092;6.828;2024-01-11T14:20:19;1.70;1.00
20839;DHT22;10580;51.092;6.828;2024-01-11T14:22:46;1.60;1.00
20839;DHT22;10580;51.092;6.828;2024-01-11T14:25:15;1.60;1.00
20839;DHT22;10580;51.092;6.828;2024-01-11T14:27:40;1.70;1.00
20839;DHT22;10580;51.092;6.828;2024-01-11T14:30:07;1.80;1.00
20839;DHT22;10580;51.092;6.828;2024-01-11T14:32:32;2.10;1.00
20839;DHT22;10580;51.092;6.828;2024-01-11T14:34:58;2.50;1.00
20839;DHT22;10580;51.092;6.828;2024-01-11T14:37:28;2.50;1.00
20839;DHT22;10580;51.092;6.828;2024-01-11T14:39:54;2.40;1.00
20839;DHT22;10580;51.092;6.828;2024-01-11T14:42:19;2.20;1.00
20839;DHT22;10580;51.092;6.828;2024-01-11T14:44:45;2.00;1.00
20839;DHT22;10580;51.092;6.828;2024-01-11T14:47:10;1.80;1.00
20839;DHT22;10580;51.092;6.828;2024-01-11T14:49:36;1.70;1.00
20839;DHT22;10580;51.092;6.828;2024-01-11T14:52:02;1.50;1.00
20839;DHT22;10580;51.092;6.828;2024-01-11T14:54:28;1.40;1.00
20839;DHT22;10580;51.092;6.828;2024-01-11T14:56:53;1.30;1.00
20839;DHT22;10580;51.092;6.828;2024-01-11T14:59:19;1.20;1.00
20839;DHT22;10580;51.092;6.828;2024-01-11T15:01:45;1.10;1.00
20839;DHT22;10580;51.092;6.828;2024-01-11T15:04:11;1.00;1.00
20839;DHT22;10580;51.092;6.828;2024-01-11T15:06:36;0.90;1.00
20839;DHT22;10580;51.092;6.828;2024-01-11T15:09:02;0.90;1.00
20839;DHT22;10580;51.092;6.828;2024-01-11T15:11:28;0.80;1.00
20839;DHT22;10580;51.092;6.828;2024-01-11T15:13:54;0.70;1.00
20839;DHT22;10580;51.092;6.828;2024-01-11T15:16:19;0.70;1.00
20839;DHT22;10580;51.092;6.828;2024-01-11T15:18:45;0.70;1.00
20839;DHT22;10580;51.092;6.828;2024-01-11T15:21:11;0.70;1.00
20839;DHT22;10580;51.092;6.828;2024-01-11T15:23:37;0.60;1.00
20839;DHT22;10580;51.092;6.828;2024-01-11T15:26:03;0.60;1.00
20839;DHT22;10580;51.092;6.828;2024-01-11T15:28:29;0.60;1.00
20839;DHT22;10580;51.092;6.828;2024-01-11T15:30:54;0.50;1.00
20839;DHT22;10580;51.092;6.828;2024-01-11T15:33:20;0.50;1.00
20839;DHT22;10580;51.092;6.828;2024-01-11T15:35:45;0.40;99.90
20839;DHT22;10580;51.092;6.828;2024-01-11T15:38:13;0.30;1.00
20839;DHT22;10580;51.092;6.828;2024-01-11T15:40:39;0.30;1.00
20839;DHT22;10580;51.092;6.828;2024-01-11T15:43:05;0.20;1.00